createdAt,value
2018-10-12T00:01:17.927Z,16.92
2018-10-12T00:03:46.969Z,16.85
2018-10-12T00:06:16.093Z,16.92
2018-10-12T00:08:45.256Z,16.86
2018-10-12T00:11:14.326Z,16.79
2018-10-12T00:13:43.407Z,16.68
2018-10-12T00:16:12.494Z,16.66
2018-10-12T00:18:41.620Z,16.64
2018-10-12T00:21:10.608Z,16.68
2018-10-12T00:23:39.736Z,16.65
2018-10-12T00:26:08.791Z,16.62
2018-10-12T00:28:37.919Z,16.66
2018-10-12T00:31:06.959Z,16.67
2018-10-12T00:33:36.036Z,16.66
2018-10-12T00:36:05.153Z,16.64
2018-10-12T00:38:34.354Z,16.60
2018-10-12T00:41:03.369Z,16.66
2018-10-12T00:43:32.459Z,16.67
2018-10-12T00:46:01.563Z,16.60
2018-10-12T00:48:30.568Z,16.56
2018-10-12T00:50:59.582Z,16.46
2018-10-12T00:53:28.573Z,16.45
2018-10-12T00:55:57.685Z,16.44
2018-10-12T00:58:26.683Z,16.37
2018-10-12T01:00:55.694Z,16.41
2018-10-12T01:03:24.737Z,16.39
2018-10-12T01:05:53.821Z,16.45
2018-10-12T01:08:22.890Z,16.49
2018-10-12T01:10:51.986Z,16.53
2018-10-12T01:13:21.034Z,16.53
2018-10-12T01:15:50.048Z,16.42
2018-10-12T01:18:19.034Z,16.41
2018-10-12T01:20:48.094Z,16.49
2018-10-12T01:23:17.094Z,16.52
2018-10-12T01:25:46.126Z,16.47
2018-10-12T01:28:15.274Z,16.48
2018-10-12T01:30:45.317Z,16.41
2018-10-12T01:33:14.326Z,16.38
2018-10-12T01:35:43.292Z,16.34
2018-10-12T01:38:12.307Z,16.28
2018-10-12T01:40:41.258Z,16.43
2018-10-12T01:43:10.280Z,16.42
2018-10-12T01:45:39.297Z,16.34
2018-10-12T01:48:08.278Z,16.27
2018-10-12T01:50:37.326Z,16.37
2018-10-12T01:53:06.663Z,16.27
2018-10-12T01:55:35.693Z,16.22
2018-10-12T01:58:04.711Z,16.15
2018-10-12T02:00:33.790Z,16.12
2018-10-12T02:03:03.276Z,16.05
2018-10-12T02:05:32.291Z,16.13
2018-10-12T02:08:01.302Z,16.14
2018-10-12T02:10:30.274Z,16.12
2018-10-12T02:12:59.280Z,16.11
2018-10-12T02:15:28.378Z,16.06
2018-10-12T02:17:57.423Z,16.03
2018-10-12T02:20:26.457Z,15.98
2018-10-12T02:22:55.435Z,16.12
2018-10-12T02:25:24.450Z,16.04
2018-10-12T02:27:53.549Z,16.03
2018-10-12T02:30:22.623Z,16.01
2018-10-12T02:32:51.635Z,15.97
2018-10-12T02:35:20.595Z,15.95
2018-10-12T02:37:49.608Z,15.91
2018-10-12T02:40:18.638Z,15.87
2018-10-12T02:42:47.719Z,15.82
2018-10-12T02:45:16.811Z,15.81
2018-10-12T02:47:45.792Z,15.81
2018-10-12T02:50:14.796Z,15.83
2018-10-12T02:52:43.770Z,15.80
2018-10-12T02:55:12.755Z,15.70
2018-10-12T02:57:41.747Z,15.63
2018-10-12T03:00:10.842Z,15.62
2018-10-12T03:02:39.841Z,15.61
2018-10-12T03:05:08.886Z,15.57
2018-10-12T03:07:37.966Z,15.57
2018-10-12T03:10:06.953Z,15.50
2018-10-12T03:12:36.045Z,15.43
2018-10-12T03:15:05.100Z,15.41
2018-10-12T03:17:34.112Z,15.39
2018-10-12T03:20:03.235Z,15.36
2018-10-12T03:22:32.198Z,15.30
2018-10-12T03:25:01.239Z,15.25
2018-10-12T03:27:30.288Z,15.28
2018-10-12T03:29:59.273Z,15.25
2018-10-12T03:32:28.290Z,15.38
2018-10-12T03:34:57.301Z,15.42
2018-10-12T03:37:26.289Z,15.43
2018-10-12T03:39:55.304Z,15.46
2018-10-12T03:42:24.363Z,15.51
2018-10-12T03:44:53.371Z,15.56
2018-10-12T03:47:22.404Z,15.54
2018-10-12T03:49:51.378Z,15.63
2018-10-12T03:52:20.478Z,15.61
2018-10-12T03:54:49.560Z,15.58
2018-10-12T03:57:18.553Z,15.56
2018-10-12T03:59:47.557Z,15.53
2018-10-12T04:02:16.631Z,15.54
2018-10-12T04:04:45.636Z,15.54
2018-10-12T04:07:14.910Z,15.56
2018-10-12T04:09:44.032Z,15.56
2018-10-12T04:12:13.062Z,15.48
2018-10-12T04:14:42.160Z,15.50
2018-10-12T04:17:11.228Z,15.45
2018-10-12T04:19:40.224Z,15.43
2018-10-12T04:22:09.230Z,15.45
2018-10-12T04:24:38.311Z,15.37
2018-10-12T04:27:07.349Z,15.38
2018-10-12T04:29:36.372Z,15.34
2018-10-12T04:32:05.522Z,15.34
2018-10-12T04:34:34.578Z,15.33
2018-10-12T04:37:03.572Z,15.22
2018-10-12T04:39:55.893Z,15.09
2018-10-12T04:42:24.898Z,14.98
2018-10-12T04:44:53.884Z,14.97
2018-10-12T04:47:26.790Z,14.97
2018-10-12T04:49:56.166Z,14.90
2018-10-12T04:52:26.496Z,14.94
2018-10-12T04:54:55.494Z,14.94
2018-10-12T04:57:24.606Z,15.00
2018-10-12T04:59:53.612Z,14.93
2018-10-12T05:02:22.576Z,14.88
2018-10-12T05:04:51.561Z,14.92
2018-10-12T05:07:20.581Z,15.00
2018-10-12T05:09:49.537Z,15.08
2018-10-12T05:12:18.566Z,15.04
2018-10-12T05:14:47.596Z,15.06
2018-10-12T05:17:16.627Z,15.03
2018-10-12T05:19:45.630Z,14.95
2018-10-12T05:22:14.732Z,14.97
2018-10-12T05:24:43.614Z,14.92
2018-10-12T05:27:12.621Z,15.00
2018-10-12T05:29:41.694Z,14.95
2018-10-12T05:32:10.713Z,14.93
2018-10-12T05:34:39.710Z,14.87
2018-10-12T05:37:08.710Z,14.81
2018-10-12T05:39:37.701Z,14.93
2018-10-12T05:42:07.116Z,14.96
2018-10-12T05:44:36.097Z,15.13
2018-10-12T05:47:05.095Z,15.13
2018-10-12T05:49:45.583Z,15.31
2018-10-12T05:52:14.522Z,15.42
2018-10-12T05:54:43.530Z,15.46
2018-10-12T05:57:12.582Z,15.63
2018-10-12T05:59:42.647Z,15.84
2018-10-12T06:02:11.631Z,16.10
2018-10-12T06:04:40.644Z,16.35
2018-10-12T06:07:09.650Z,16.58
2018-10-12T06:09:38.758Z,16.89
2018-10-12T06:12:07.717Z,17.13
2018-10-12T06:14:36.902Z,17.49
2018-10-12T06:17:06.000Z,17.77
2018-10-12T06:19:35.032Z,18.12
2018-10-12T06:22:04.025Z,18.27
2018-10-12T06:24:33.052Z,18.45
2018-10-12T06:27:02.099Z,18.74
2018-10-12T06:29:31.111Z,18.85
2018-10-12T06:32:00.396Z,18.82
2018-10-12T06:34:29.397Z,18.74
2018-10-12T06:36:58.490Z,18.74
2018-10-12T06:39:27.494Z,18.60
2018-10-12T06:41:56.635Z,18.58
2018-10-12T06:44:25.662Z,18.57
2018-10-12T06:46:54.679Z,18.61
2018-10-12T06:49:23.709Z,18.92
2018-10-12T06:51:52.762Z,18.90
2018-10-12T06:54:21.790Z,18.88
2018-10-12T06:56:50.875Z,18.98
2018-10-12T06:59:19.848Z,19.04
2018-10-12T07:01:48.826Z,19.22
2018-10-12T07:04:17.828Z,19.08
2018-10-12T07:06:46.869Z,19.18
2018-10-12T07:09:16.024Z,19.09
2018-10-12T07:11:44.996Z,19.38
2018-10-12T07:14:14.097Z,19.72
2018-10-12T07:16:43.107Z,20.25
2018-10-12T07:19:12.150Z,19.70
2018-10-12T07:21:41.279Z,19.42
2018-10-12T07:24:10.379Z,20.17
2018-10-12T07:26:39.411Z,20.30
2018-10-12T07:29:08.419Z,20.43
2018-10-12T07:31:37.661Z,20.17
2018-10-12T07:34:06.791Z,20.85
2018-10-12T07:36:35.815Z,20.79
2018-10-12T07:39:06.803Z,20.63
2018-10-12T07:41:35.816Z,21.96
2018-10-12T07:44:04.803Z,21.75
2018-10-12T07:46:33.805Z,20.89
2018-10-12T07:49:02.828Z,20.69
2018-10-12T07:51:31.751Z,20.71
2018-10-12T07:54:00.770Z,21.09
2018-10-12T07:56:29.803Z,20.36
2018-10-12T07:58:58.768Z,20.56
2018-10-12T08:01:27.952Z,20.37
2018-10-12T08:03:57.273Z,21.26
2018-10-12T08:06:26.986Z,21.69
2018-10-12T08:08:55.976Z,21.73
2018-10-12T08:11:24.960Z,21.68
2018-10-12T08:13:54.116Z,22.54
2018-10-12T08:16:22.982Z,22.32
2018-10-12T08:18:51.931Z,22.92
2018-10-12T08:21:20.922Z,22.31
2018-10-12T08:23:49.930Z,22.04
2018-10-12T08:26:18.925Z,22.70
2018-10-12T08:28:47.935Z,23.50
2018-10-12T08:31:16.910Z,23.42
2018-10-12T08:33:45.922Z,23.34
2018-10-12T08:36:14.914Z,24.28
2018-10-12T08:38:43.971Z,23.82
2018-10-12T08:41:12.999Z,23.78
2018-10-12T08:43:42.044Z,23.63
2018-10-12T08:46:11.079Z,23.71
2018-10-12T08:48:40.668Z,24.00
2018-10-12T08:51:09.702Z,23.37
2018-10-12T08:53:38.688Z,23.31
2018-10-12T08:56:07.885Z,23.60
2018-10-12T08:58:36.865Z,22.85
2018-10-12T09:01:06.257Z,22.89
2018-10-12T09:03:35.292Z,23.30
2018-10-12T09:06:04.287Z,23.76
2018-10-12T09:08:33.555Z,23.37
2018-10-12T09:11:02.556Z,23.08
2018-10-12T09:13:31.542Z,23.92
2018-10-12T09:16:00.537Z,23.95
2018-10-12T09:18:29.564Z,23.83
2018-10-12T09:20:58.547Z,23.90
2018-10-12T09:23:27.542Z,24.30
2018-10-12T09:25:56.516Z,24.32
2018-10-12T09:28:25.555Z,24.72
2018-10-12T09:30:54.536Z,24.53
2018-10-12T09:33:23.536Z,24.23
2018-10-12T09:35:52.510Z,23.80
2018-10-12T09:38:21.568Z,24.41
2018-10-12T09:40:50.599Z,24.18
2018-10-12T09:43:19.723Z,24.25
2018-10-12T09:45:48.727Z,24.39
2018-10-12T09:48:18.665Z,24.57
2018-10-12T09:50:48.499Z,24.28
2018-10-12T09:53:17.504Z,23.98
2018-10-12T09:55:46.514Z,24.54
2018-10-12T09:58:15.533Z,24.90
2018-10-12T10:00:50.027Z,25.80
2018-10-12T10:03:24.404Z,26.21
2018-10-12T10:05:53.453Z,26.75
2018-10-12T10:08:22.722Z,26.36
2018-10-12T10:10:51.531Z,26.39
2018-10-12T10:13:20.551Z,27.47
2018-10-12T10:15:49.528Z,26.60
2018-10-12T10:18:18.566Z,27.06
2018-10-12T10:20:47.669Z,28.24
2018-10-12T10:23:16.626Z,28.32
2018-10-12T10:25:45.606Z,26.82
2018-10-12T10:28:14.628Z,25.99
2018-10-12T10:30:43.694Z,25.74
2018-10-12T10:33:12.715Z,24.90
2018-10-12T10:35:42.052Z,25.83
2018-10-12T10:38:11.105Z,26.55
2018-10-12T10:40:40.182Z,26.91
2018-10-12T10:43:09.202Z,26.22
2018-10-12T10:45:38.152Z,26.53
2018-10-12T10:48:07.197Z,26.10
2018-10-12T10:50:36.299Z,26.92
2018-10-12T10:53:06.016Z,26.89
2018-10-12T10:55:35.118Z,27.70
2018-10-12T10:58:04.175Z,28.32
2018-10-12T11:00:33.180Z,28.43
2018-10-12T11:03:02.138Z,27.92
2018-10-12T11:05:31.180Z,27.64
2018-10-12T11:08:00.143Z,28.03
2018-10-12T11:10:29.152Z,28.52
2018-10-12T11:12:58.134Z,28.59
2018-10-12T11:15:27.681Z,28.11
2018-10-12T11:17:56.795Z,28.22
2018-10-12T11:20:25.834Z,28.19
2018-10-12T11:22:54.822Z,28.16
2018-10-12T11:25:23.962Z,28.48
2018-10-12T11:27:52.806Z,28.40
2018-10-12T11:30:21.782Z,27.95
2018-10-12T11:32:50.918Z,29.27
2018-10-12T11:35:20.412Z,28.13
2018-10-12T11:37:49.390Z,27.79
2018-10-12T11:40:18.375Z,28.45
2018-10-12T11:42:58.925Z,27.98
2018-10-12T11:45:27.991Z,29.17
2018-10-12T11:47:56.952Z,29.01
2018-10-12T11:50:25.924Z,29.75
2018-10-12T11:52:55.020Z,28.64
2018-10-12T11:55:24.099Z,27.83
2018-10-12T11:57:53.014Z,27.89
2018-10-12T12:00:22.192Z,27.85
2018-10-12T12:02:51.232Z,27.89
2018-10-12T12:05:20.196Z,27.66
2018-10-12T12:07:49.220Z,27.42
2018-10-12T12:10:18.201Z,28.31
2018-10-12T12:12:47.164Z,28.21
2018-10-12T12:15:16.168Z,28.14
2018-10-12T12:17:45.126Z,28.17
2018-10-12T12:20:14.204Z,27.11
2018-10-12T12:22:43.219Z,27.83
2018-10-12T12:25:12.254Z,28.21
2018-10-12T12:27:41.288Z,28.36
2018-10-12T12:30:10.364Z,28.21
2018-10-12T12:32:39.426Z,28.59
2018-10-12T12:35:08.792Z,28.58
2018-10-12T12:37:37.592Z,27.91
2018-10-12T12:40:06.966Z,28.26
2018-10-12T12:42:35.955Z,28.12
2018-10-12T12:45:05.956Z,29.01
2018-10-12T12:47:35.294Z,27.74
2018-10-12T12:50:04.235Z,27.75
2018-10-12T12:52:33.258Z,27.51
2018-10-12T12:55:02.310Z,27.66
2018-10-12T12:57:31.330Z,28.24
2018-10-12T13:00:00.369Z,28.07
2018-10-12T13:02:29.326Z,28.46
2018-10-12T13:04:58.324Z,27.94
2018-10-12T13:07:27.343Z,27.65
2018-10-12T13:09:56.360Z,27.63
2018-10-12T13:12:25.508Z,27.35
2018-10-12T13:14:54.538Z,28.26
2018-10-12T13:17:23.606Z,27.84
2018-10-12T13:19:52.602Z,27.68
2018-10-12T13:22:21.658Z,27.54
2018-10-12T13:24:50.711Z,27.86
2018-10-12T13:27:19.684Z,27.75
2018-10-12T13:29:48.711Z,28.19
2018-10-12T13:32:17.790Z,27.61
2018-10-12T13:34:46.837Z,28.00
2018-10-12T13:37:15.894Z,27.76
2018-10-12T13:39:44.973Z,27.02
2018-10-12T13:42:13.958Z,26.69
2018-10-12T13:44:43.110Z,26.79
2018-10-12T13:47:12.077Z,27.52
2018-10-12T13:49:41.395Z,26.83
2018-10-12T13:52:10.446Z,27.66
2018-10-12T13:54:39.440Z,27.22
2018-10-12T13:57:08.459Z,26.43
2018-10-12T13:59:37.439Z,26.53
2018-10-12T14:02:06.755Z,26.31
2018-10-12T14:04:35.804Z,26.34
2018-10-12T14:07:04.949Z,26.44
2018-10-12T14:09:33.923Z,26.53
2018-10-12T14:12:02.939Z,26.14
2018-10-12T14:14:32.025Z,26.54
2018-10-12T14:17:01.022Z,26.47
2018-10-12T14:19:30.033Z,26.32
2018-10-12T14:21:59.199Z,25.91
2018-10-12T14:24:28.208Z,25.59
2018-10-12T14:26:57.305Z,25.44
2018-10-12T14:29:26.279Z,25.97
2018-10-12T14:31:55.304Z,26.32
2018-10-12T14:34:24.354Z,26.15
2018-10-12T14:36:53.369Z,26.16
2018-10-12T14:39:22.348Z,26.06
2018-10-12T14:41:51.367Z,25.98
2018-10-12T14:44:20.356Z,25.93
2018-10-12T14:46:49.344Z,26.09
2018-10-12T14:49:18.378Z,26.35
2018-10-12T14:51:47.440Z,26.63
2018-10-12T14:54:16.526Z,26.56
2018-10-12T14:56:45.491Z,26.75
2018-10-12T14:59:14.433Z,26.58
2018-10-12T15:01:43.482Z,26.44
2018-10-12T15:04:12.507Z,26.22
2018-10-12T15:06:41.487Z,25.85
2018-10-12T15:09:12.417Z,25.73
2018-10-12T15:11:41.571Z,25.48
2018-10-12T15:14:10.715Z,25.57
2018-10-12T15:16:39.736Z,25.49
2018-10-12T15:19:08.710Z,25.38
2018-10-12T15:21:37.703Z,25.18
2018-10-12T15:24:07.007Z,24.86
2018-10-12T15:26:35.963Z,24.92
2018-10-12T15:29:05.025Z,24.90
2018-10-12T15:31:34.091Z,24.60
2018-10-12T15:34:03.065Z,24.54
2018-10-12T15:36:32.182Z,24.22
2018-10-12T15:39:01.174Z,24.05
2018-10-12T15:41:30.165Z,24.04
2018-10-12T15:43:59.166Z,23.86
2018-10-12T15:46:28.441Z,23.68
2018-10-12T15:48:57.506Z,23.49
2018-10-12T15:51:26.497Z,23.37
2018-10-12T15:53:55.478Z,23.24
2018-10-12T15:56:24.433Z,23.11
2018-10-12T15:58:53.420Z,23.01
2018-10-12T16:01:22.492Z,22.86
2018-10-12T16:03:51.508Z,22.76
2018-10-12T16:06:20.705Z,22.61
2018-10-12T16:08:49.821Z,22.56
2018-10-12T16:11:18.824Z,22.51
2018-10-12T16:13:47.789Z,22.38
2018-10-12T16:16:16.787Z,22.31
2018-10-12T16:18:45.746Z,22.24
2018-10-12T16:21:14.769Z,22.20
2018-10-12T16:23:45.908Z,22.09
2018-10-12T16:26:18.796Z,22.01
2018-10-12T16:28:47.860Z,21.92
2018-10-12T16:31:17.174Z,21.85
2018-10-12T16:33:46.187Z,21.79
2018-10-12T16:36:15.457Z,21.72
2018-10-12T16:38:44.637Z,21.65
2018-10-12T16:41:13.626Z,21.53
2018-10-12T16:43:42.723Z,21.46
2018-10-12T16:46:11.778Z,21.37
2018-10-12T16:48:40.923Z,21.30
2018-10-12T16:51:09.818Z,21.21
2018-10-12T16:53:38.845Z,21.19
2018-10-12T16:56:07.874Z,21.08
2018-10-12T16:58:36.903Z,21.01
2018-10-12T17:01:05.879Z,20.97
2018-10-12T17:03:35.174Z,20.82
2018-10-12T17:06:04.224Z,20.78
2018-10-12T17:08:33.267Z,20.66
2018-10-12T17:11:02.362Z,20.47
2018-10-12T17:13:32.499Z,20.42
2018-10-12T17:16:01.598Z,20.20
2018-10-12T17:18:30.584Z,20.04
2018-10-12T17:20:59.539Z,19.88
2018-10-12T17:23:28.544Z,19.67
2018-10-12T17:25:57.557Z,19.61
2018-10-12T17:28:26.510Z,19.47
2018-10-12T17:30:55.537Z,19.32
2018-10-12T17:33:24.537Z,19.25
2018-10-12T17:35:53.502Z,19.14
2018-10-12T17:38:22.535Z,19.08
2018-10-12T17:40:51.521Z,19.23
2018-10-12T17:43:20.516Z,19.17
2018-10-12T17:45:49.489Z,19.22
2018-10-12T17:48:18.470Z,19.20
2018-10-12T17:50:47.595Z,19.04
2018-10-12T17:53:16.579Z,19.04
2018-10-12T17:55:45.566Z,18.88
2018-10-12T17:58:14.631Z,18.65
2018-10-12T18:00:43.749Z,18.49
2018-10-12T18:03:12.810Z,18.34
2018-10-12T18:05:41.744Z,18.26
2018-10-12T18:08:10.785Z,18.16
2018-10-12T18:10:39.835Z,18.13
2018-10-12T18:13:08.843Z,18.22
2018-10-12T18:15:37.834Z,18.11
2018-10-12T18:18:06.839Z,17.96
2018-10-12T18:20:35.838Z,17.83
2018-10-12T18:23:04.804Z,17.85
2018-10-12T18:25:33.791Z,17.95
2018-10-12T18:28:02.832Z,17.89
2018-10-12T18:30:31.783Z,17.73
2018-10-12T18:33:00.821Z,17.63
2018-10-12T18:35:29.779Z,17.93
2018-10-12T18:37:58.760Z,17.78
2018-10-12T18:40:27.991Z,17.64
2018-10-12T18:42:57.097Z,17.58
2018-10-12T18:45:26.177Z,17.55
2018-10-12T18:47:55.324Z,17.56
2018-10-12T18:50:24.299Z,17.53
2018-10-12T18:52:53.237Z,17.56
2018-10-12T18:55:22.277Z,17.46
2018-10-12T18:57:51.251Z,17.40
2018-10-12T19:00:20.290Z,17.32
2018-10-12T19:02:49.319Z,17.26
2018-10-12T19:05:18.336Z,17.20
2018-10-12T19:07:47.330Z,17.15
2018-10-12T19:10:16.420Z,17.20
2018-10-12T19:12:45.421Z,17.20
2018-10-12T19:15:14.422Z,17.16
2018-10-12T19:17:43.413Z,17.17
2018-10-12T19:20:12.426Z,17.20
2018-10-12T19:22:41.416Z,17.22
2018-10-12T19:25:10.410Z,17.19
2018-10-12T19:27:39.361Z,17.18
2018-10-12T19:30:08.373Z,17.14
2018-10-12T19:32:37.346Z,17.16
2018-10-12T19:35:06.643Z,17.08
2018-10-12T19:37:35.650Z,16.98
2018-10-12T19:40:04.649Z,16.89
2018-10-12T19:42:33.642Z,16.85
2018-10-12T19:45:02.656Z,16.80
2018-10-12T19:47:31.662Z,16.71
2018-10-12T19:50:00.723Z,16.60
2018-10-12T19:52:30.059Z,16.55
2018-10-12T19:54:59.003Z,16.50
2018-10-12T19:57:28.045Z,16.46
2018-10-12T19:59:57.018Z,16.42
2018-10-12T20:02:26.015Z,16.39
2018-10-12T20:04:55.046Z,16.33
2018-10-12T20:07:23.967Z,16.28
2018-10-12T20:09:53.015Z,16.26
2018-10-12T20:12:22.010Z,16.30
2018-10-12T20:14:50.974Z,16.32
2018-10-12T20:17:20.281Z,16.34
2018-10-12T20:19:49.492Z,16.27
2018-10-12T20:22:18.506Z,16.28
2018-10-12T20:24:47.466Z,16.21
2018-10-12T20:27:16.492Z,16.11
2018-10-12T20:29:45.546Z,16.11
2018-10-12T20:32:14.582Z,16.14
2018-10-12T20:34:43.540Z,16.04
2018-10-12T20:37:12.577Z,16.01
2018-10-12T20:39:41.503Z,15.99
2018-10-12T20:42:10.511Z,16.01
2018-10-12T20:44:39.514Z,15.94
2018-10-12T20:47:08.613Z,15.92
2018-10-12T20:49:38.622Z,15.79
2018-10-12T20:52:07.760Z,15.83
2018-10-12T20:54:36.730Z,15.75
2018-10-12T20:57:06.149Z,15.71
2018-10-12T20:59:35.060Z,15.69
2018-10-12T21:02:04.008Z,15.62
2018-10-12T21:04:33.034Z,15.65
2018-10-12T21:07:02.023Z,15.61
2018-10-12T21:09:31.130Z,15.55
2018-10-12T21:11:59.980Z,15.60
2018-10-12T21:14:29.204Z,15.56
2018-10-12T21:16:58.304Z,15.56
2018-10-12T21:19:27.325Z,15.56
2018-10-12T21:21:56.367Z,15.51
2018-10-12T21:24:25.388Z,15.48
2018-10-12T21:26:54.305Z,15.42
2018-10-12T21:29:23.403Z,15.33
2018-10-12T21:31:52.340Z,15.32
2018-10-12T21:35:25.031Z,15.19
2018-10-12T21:37:54.042Z,15.10
2018-10-12T21:40:23.138Z,15.01
2018-10-12T21:42:52.060Z,15.02
2018-10-12T21:45:21.045Z,14.96
2018-10-12T21:47:50.002Z,14.88
2018-10-12T21:50:19.121Z,14.89
2018-10-12T21:52:48.114Z,14.85
2018-10-12T21:55:17.046Z,14.85
2018-10-12T21:57:46.112Z,14.80
2018-10-12T22:00:15.056Z,14.78
2018-10-12T22:02:44.096Z,14.76
2018-10-12T22:05:13.118Z,14.75
2018-10-12T22:07:42.184Z,14.70
2018-10-12T22:10:11.173Z,14.63
2018-10-12T22:12:40.153Z,14.57
2018-10-12T22:15:09.351Z,14.52
2018-10-12T22:17:38.365Z,14.51
2018-10-12T22:20:07.333Z,14.53
2018-10-12T22:22:36.343Z,14.50
2018-10-12T22:25:05.336Z,14.50
2018-10-12T22:27:34.353Z,14.43
2018-10-12T22:30:03.366Z,14.36
2018-10-12T22:32:32.298Z,14.31
2018-10-12T22:35:01.325Z,14.24
2018-10-12T22:37:30.282Z,14.28
2018-10-12T22:39:59.277Z,14.24
2018-10-12T22:42:28.280Z,14.20
2018-10-12T22:44:57.259Z,14.16
2018-10-12T22:47:26.275Z,14.16
2018-10-12T22:49:55.269Z,14.07
2018-10-12T22:52:24.258Z,14.15
2018-10-12T22:54:53.259Z,14.08
2018-10-12T22:57:22.304Z,14.09
2018-10-12T22:59:51.288Z,14.02
2018-10-12T23:02:20.252Z,13.94
2018-10-12T23:04:49.274Z,13.89
2018-10-12T23:07:18.229Z,13.86
2018-10-12T23:09:47.305Z,13.78
2018-10-12T23:12:16.309Z,13.70
2018-10-12T23:14:45.323Z,13.66
2018-10-12T23:17:14.434Z,13.74
2018-10-12T23:19:43.407Z,13.69
2018-10-12T23:22:12.388Z,13.66
2018-10-12T23:24:41.402Z,13.72
2018-10-12T23:27:10.380Z,13.62
2018-10-12T23:29:39.414Z,13.55
2018-10-12T23:32:08.378Z,13.47
2018-10-12T23:34:37.371Z,13.46
2018-10-12T23:37:06.619Z,13.34
2018-10-12T23:39:35.693Z,13.34
2018-10-12T23:42:04.642Z,13.28
2018-10-12T23:44:33.685Z,13.26
2018-10-12T23:47:02.638Z,13.20
2018-10-12T23:49:31.690Z,13.17
2018-10-12T23:52:00.743Z,13.19
2018-10-12T23:54:29.776Z,13.13
2018-10-12T23:56:58.739Z,13.13
2018-10-12T23:59:27.728Z,13.07
